createdAt,value
2023-05-18T00:03:07.896Z,99.90
2023-05-18T00:08:10.080Z,99.90
2023-05-18T00:13:11.956Z,99.90
2023-05-18T00:18:13.849Z,99.90
2023-05-18T00:23:16.388Z,99.90
2023-05-18T00:28:18.338Z,99.90
2023-05-18T00:33:20.542Z,99.90
2023-05-18T00:38:22.410Z,99.90
2023-05-18T00:43:24.272Z,99.90
2023-05-18T00:48:26.116Z,99.90
2023-05-18T00:53:28.324Z,99.90
2023-05-18T00:58:31.324Z,99.90
2023-05-18T01:03:34.429Z,99.90
2023-05-18T01:08:37.370Z,99.90
2023-05-18T01:13:59.399Z,99.90
2023-05-18T01:19:07.729Z,99.90
2023-05-18T01:24:31.820Z,99.90
2023-05-18T01:29:34.102Z,99.90
2023-05-18T01:34:35.916Z,99.90
2023-05-18T01:39:37.892Z,99.90
2023-05-18T01:44:49.318Z,99.90
2023-05-18T01:50:08.184Z,99.90
2023-05-18T01:55:11.733Z,99.90
2023-05-18T02:00:16.649Z,99.90
2023-05-18T02:05:18.541Z,99.90
2023-05-18T02:10:21.612Z,99.90
2023-05-18T02:15:23.442Z,99.90
2023-05-18T02:20:26.963Z,99.90
2023-05-18T02:25:29.860Z,99.90
2023-05-18T02:30:33.289Z,99.90
2023-05-18T02:35:35.610Z,99.90
2023-05-18T02:40:37.473Z,99.90
2023-05-18T02:45:39.334Z,99.90
2023-05-18T02:50:41.976Z,99.90
2023-05-18T02:55:46.700Z,99.90
2023-05-18T03:00:49.306Z,99.90
2023-05-18T03:05:54.108Z,99.90
2023-05-18T03:10:56.242Z,99.90
2023-05-18T03:15:58.607Z,99.90
2023-05-18T03:21:02.212Z,99.90
2023-05-18T03:26:10.583Z,99.90
2023-05-18T03:31:12.528Z,99.90
2023-05-18T03:36:14.384Z,99.90
2023-05-18T03:41:16.297Z,99.90
2023-05-18T03:46:18.196Z,99.90
2023-05-18T03:51:20.787Z,99.90
2023-05-18T03:56:23.200Z,99.90
2023-05-18T04:01:25.113Z,99.90
2023-05-18T04:06:27.037Z,99.90
2023-05-18T04:11:28.873Z,99.90
2023-05-18T04:16:31.309Z,99.90
2023-05-18T04:21:36.285Z,99.90
2023-05-18T04:26:38.537Z,99.90
2023-05-18T04:31:44.575Z,99.90
2023-05-18T04:36:46.520Z,99.90
2023-05-18T04:41:48.498Z,99.90
2023-05-18T04:46:50.468Z,99.90
2023-05-18T04:51:55.900Z,99.90
2023-05-18T04:56:58.692Z,99.90
2023-05-18T05:02:00.598Z,99.90
2023-05-18T05:07:02.415Z,99.70
2023-05-18T05:12:04.566Z,99.90
2023-05-18T05:17:06.431Z,99.60
2023-05-18T05:22:08.339Z,99.90
2023-05-18T05:27:10.201Z,99.50
2023-05-18T05:32:13.044Z,99.40
2023-05-18T05:37:14.940Z,99.00
2023-05-18T05:42:16.812Z,98.90
2023-05-18T05:47:18.697Z,98.80
2023-05-18T05:52:20.682Z,98.90
2023-05-18T05:57:22.691Z,98.70
2023-05-18T06:02:24.557Z,98.70
2023-05-18T06:07:26.482Z,98.70
2023-05-18T06:12:28.306Z,98.30
2023-05-18T06:17:30.759Z,98.40
2023-05-18T06:22:32.734Z,98.80
2023-05-18T06:27:34.637Z,98.80
2023-05-18T06:32:37.701Z,98.80
2023-05-18T06:37:39.877Z,98.30
2023-05-18T06:42:41.747Z,98.50
2023-05-18T06:47:43.691Z,98.60
2023-05-18T06:52:45.557Z,98.70
2023-05-18T06:57:47.859Z,98.50
2023-05-18T07:02:49.703Z,98.50
2023-05-18T07:07:51.752Z,98.10
2023-05-18T07:12:53.612Z,98.30
2023-05-18T07:17:56.339Z,98.30
2023-05-18T07:22:58.186Z,98.40
2023-05-18T07:28:00.097Z,98.60
2023-05-18T07:33:02.160Z,98.60
2023-05-18T07:38:04.199Z,98.30
2023-05-18T07:43:06.068Z,98.70
2023-05-18T07:48:16.922Z,98.20
2023-05-18T07:53:18.754Z,98.00
2023-05-18T07:58:20.600Z,98.10
2023-05-18T08:03:22.658Z,98.20
2023-05-18T08:08:24.731Z,98.10
2023-05-18T08:13:28.751Z,98.40
2023-05-18T08:18:30.655Z,98.00
2023-05-18T08:23:32.471Z,98.60
2023-05-18T08:28:34.598Z,98.30
2023-05-18T08:33:36.460Z,98.00
2023-05-18T08:38:38.339Z,98.10
2023-05-18T08:43:46.953Z,98.10
2023-05-18T08:48:52.098Z,98.40
2023-05-18T08:53:54.297Z,98.10
2023-05-18T08:58:57.332Z,97.60
2023-05-18T09:04:00.796Z,97.30
2023-05-18T09:09:06.657Z,97.30
2023-05-18T09:14:09.724Z,97.40
2023-05-18T09:19:16.397Z,97.10
2023-05-18T09:24:21.324Z,97.10
2023-05-18T09:29:24.434Z,97.10
2023-05-18T09:34:39.473Z,96.80
2023-05-18T09:39:42.344Z,96.80
2023-05-18T09:44:46.224Z,97.30
2023-05-18T09:49:48.840Z,97.40
2023-05-18T09:55:04.588Z,97.40
2023-05-18T10:00:10.926Z,97.70
2023-05-18T10:05:23.726Z,97.50
2023-05-18T10:10:27.352Z,97.70
2023-05-18T10:15:30.582Z,97.80
2023-05-18T10:20:32.788Z,97.90
2023-05-18T10:25:35.709Z,97.60
2023-05-18T10:30:41.798Z,97.20
2023-05-18T10:35:49.433Z,97.10
2023-05-18T10:41:00.293Z,96.80
2023-05-18T10:46:02.399Z,96.90
2023-05-18T10:51:06.956Z,97.20
2023-05-18T10:56:09.331Z,97.50
2023-05-18T11:01:11.894Z,96.80
2023-05-18T11:06:15.379Z,97.00
2023-05-18T11:11:19.451Z,96.70
2023-05-18T11:16:33.137Z,96.50
2023-05-18T11:21:35.881Z,96.70
2023-05-18T11:26:41.386Z,96.40
2023-05-18T11:31:47.252Z,95.90
2023-05-18T11:36:56.160Z,96.00
2023-05-18T11:42:07.097Z,95.70
2023-05-18T11:47:10.396Z,95.60
2023-05-18T11:52:12.228Z,95.90
2023-05-18T11:57:15.751Z,95.30
2023-05-18T12:02:24.130Z,95.70
2023-05-18T12:07:36.530Z,95.30
2023-05-18T12:12:39.707Z,95.10
2023-05-18T12:17:48.422Z,94.40
2023-05-18T12:22:54.883Z,93.90
2023-05-18T12:27:57.096Z,94.40
2023-05-18T12:32:59.906Z,94.50
2023-05-18T12:38:02.630Z,93.90
2023-05-18T12:43:04.982Z,93.90
2023-05-18T12:48:12.554Z,93.70
2023-05-18T12:53:14.570Z,93.30
2023-05-18T12:58:17.874Z,92.20
2023-05-18T13:03:21.964Z,92.30
2023-05-18T13:08:24.490Z,92.40
2023-05-18T13:13:26.353Z,92.80
2023-05-18T13:18:28.482Z,92.20
2023-05-18T13:23:31.080Z,92.70
2023-05-18T13:28:32.950Z,92.70
2023-05-18T13:33:34.805Z,92.70
2023-05-18T13:38:37.485Z,92.20
2023-05-18T13:43:39.477Z,91.90
2023-05-18T13:48:41.372Z,92.20
2023-05-18T13:53:44.303Z,92.50
2023-05-18T13:58:46.133Z,92.70
2023-05-18T14:03:48.162Z,93.10
2023-05-18T14:08:50.040Z,92.10
2023-05-18T14:13:51.896Z,92.60
2023-05-18T14:18:53.757Z,92.80
2023-05-18T14:23:55.814Z,92.50
2023-05-18T14:28:57.750Z,92.90
2023-05-18T14:34:00.748Z,92.50
2023-05-18T14:39:02.858Z,91.90
2023-05-18T14:44:08.494Z,92.10
2023-05-18T14:49:10.549Z,91.90
2023-05-18T14:54:13.995Z,91.70
2023-05-18T14:59:15.980Z,92.10
2023-05-18T15:04:19.233Z,92.50
2023-05-18T15:09:21.146Z,93.00
2023-05-18T15:14:23.009Z,93.00
2023-05-18T15:19:24.920Z,93.00
2023-05-18T15:24:26.904Z,93.00
2023-05-18T15:29:29.186Z,92.40
2023-05-18T15:34:33.400Z,92.50
2023-05-18T15:39:37.694Z,92.80
2023-05-18T15:44:39.684Z,92.70
2023-05-18T15:49:41.561Z,93.10
2023-05-18T15:54:43.464Z,93.40
2023-05-18T15:59:45.368Z,93.00
2023-05-18T16:04:47.424Z,93.20
2023-05-18T16:09:49.704Z,93.30
2023-05-18T16:14:51.905Z,93.00
2023-05-18T16:19:53.828Z,92.80
2023-05-18T16:24:57.641Z,92.80
2023-05-18T16:29:59.643Z,92.70
2023-05-18T16:35:02.162Z,93.20
2023-05-18T16:40:05.932Z,93.20
2023-05-18T16:45:08.184Z,93.10
2023-05-18T16:50:11.088Z,92.80
2023-05-18T16:55:33.655Z,93.00
2023-05-18T17:00:59.018Z,92.60
2023-05-18T17:13:46.841Z,93.10
2023-05-18T17:20:05.432Z,93.00
2023-05-18T17:25:06.031Z,92.50
2023-05-18T17:30:08.464Z,92.60
2023-05-18T17:35:13.306Z,92.50
2023-05-18T17:40:26.694Z,92.80
2023-05-18T17:46:06.052Z,93.30
2023-05-18T17:51:10.636Z,93.50
2023-05-18T17:56:12.742Z,93.70
2023-05-18T18:01:14.675Z,93.70
2023-05-18T18:06:22.258Z,94.00
2023-05-18T18:11:25.351Z,94.20
2023-05-18T18:16:27.392Z,94.50
2023-05-18T18:21:29.270Z,94.50
2023-05-18T18:26:32.222Z,95.10
2023-05-18T18:31:34.267Z,95.20
2023-05-18T18:36:36.856Z,95.50
2023-05-18T18:41:38.867Z,95.60
2023-05-18T18:46:40.921Z,95.70
2023-05-18T18:51:42.893Z,95.90
2023-05-18T18:56:44.815Z,95.80
2023-05-18T19:01:46.904Z,96.00
2023-05-18T19:06:49.086Z,96.00
2023-05-18T19:11:50.969Z,96.10
2023-05-18T19:16:52.902Z,95.60
2023-05-18T19:21:58.478Z,95.50
2023-05-18T19:27:00.681Z,95.50
2023-05-18T19:32:06.093Z,95.70
2023-05-18T19:37:08.494Z,95.70
2023-05-18T19:42:10.689Z,95.70
2023-05-18T19:47:12.545Z,95.70
2023-05-18T19:52:14.469Z,95.60
2023-05-18T19:57:18.270Z,95.80
2023-05-18T20:02:20.613Z,96.10
2023-05-18T20:07:23.909Z,96.40
2023-05-18T20:12:28.390Z,96.70
2023-05-18T20:17:30.336Z,97.00
2023-05-18T20:22:32.237Z,97.10
2023-05-18T20:27:34.202Z,97.20
2023-05-18T20:32:36.132Z,97.50
2023-05-18T20:37:41.277Z,97.80
2023-05-18T20:42:43.214Z,98.10
2023-05-18T20:47:45.476Z,98.70
2023-05-18T20:52:47.750Z,99.50
2023-05-18T20:57:49.874Z,99.80
2023-05-18T21:02:52.180Z,99.70
2023-05-18T21:07:54.276Z,99.90
2023-05-18T21:12:56.523Z,99.90
2023-05-18T21:17:58.464Z,99.90
2023-05-18T21:23:00.423Z,99.90
2023-05-18T21:28:02.468Z,99.90
2023-05-18T21:33:04.394Z,99.90
2023-05-18T21:38:06.361Z,99.90
2023-05-18T21:43:08.303Z,99.90
2023-05-18T21:48:11.524Z,99.90
2023-05-18T21:53:15.697Z,99.90
2023-05-18T21:58:17.647Z,99.90
2023-05-18T22:03:23.609Z,99.90
2023-05-18T22:08:25.702Z,99.90
2023-05-18T22:13:27.770Z,99.90
2023-05-18T22:18:32.198Z,99.90
2023-05-18T22:23:34.062Z,99.90
2023-05-18T22:28:36.415Z,99.90
2023-05-18T22:33:38.480Z,99.90
2023-05-18T22:38:43.778Z,99.90
2023-05-18T22:43:47.929Z,99.90
2023-05-18T22:48:50.867Z,99.90
2023-05-18T22:53:52.968Z,99.90
2023-05-18T22:58:56.339Z,99.90
2023-05-18T23:03:58.877Z,99.90
2023-05-18T23:09:00.796Z,99.90
2023-05-18T23:14:04.176Z,99.90
2023-05-18T23:19:09.570Z,99.90
2023-05-18T23:24:14.610Z,99.90
2023-05-18T23:29:16.570Z,99.90
2023-05-18T23:34:20.128Z,99.90
2023-05-18T23:39:22.483Z,99.90
2023-05-18T23:44:24.847Z,99.90
2023-05-18T23:49:27.152Z,99.90
2023-05-18T23:54:30.125Z,99.90
2023-05-18T23:59:35.705Z,99.90
